createdAt,value
2022-09-22T00:01:08.438Z,14.70
2022-09-22T00:03:38.139Z,14.60
2022-09-22T00:06:28.761Z,14.60
2022-09-22T00:08:57.841Z,14.60
2022-09-22T00:11:29.086Z,13.70
2022-09-22T00:13:59.195Z,14.50
2022-09-22T00:16:30.420Z,14.50
2022-09-22T00:18:57.601Z,14.50
2022-09-22T00:21:28.095Z,14.40
2022-09-22T00:23:55.297Z,13.50
2022-09-22T00:26:23.385Z,14.40
2022-09-22T00:28:52.889Z,14.40
2022-09-22T00:31:24.015Z,14.30
2022-09-22T00:33:52.190Z,14.50
2022-09-22T00:36:21.761Z,14.30
2022-09-22T00:38:52.090Z,14.80
2022-09-22T00:41:20.740Z,14.20
2022-09-22T00:43:50.622Z,14.30
2022-09-22T00:46:28.792Z,14.20
2022-09-22T00:49:01.078Z,14.20
2022-09-22T00:51:30.984Z,14.20
2022-09-22T00:53:59.199Z,14.20
2022-09-22T00:56:35.749Z,14.20
2022-09-22T00:59:04.770Z,14.10
2022-09-22T01:01:33.771Z,14.20
2022-09-22T01:04:00.976Z,14.10
2022-09-22T01:06:28.686Z,14.10
2022-09-22T01:08:56.515Z,14.10
2022-09-22T01:11:25.295Z,14.10
2022-09-22T01:14:16.163Z,14.10
2022-09-22T01:17:02.510Z,14.10
2022-09-22T01:19:29.535Z,13.30
2022-09-22T01:21:56.639Z,14.00
2022-09-22T01:24:45.579Z,14.00
2022-09-22T01:27:51.102Z,14.10
2022-09-22T01:30:18.224Z,14.00
2022-09-22T01:32:50.847Z,14.00
2022-09-22T01:35:23.842Z,15.20
2022-09-22T01:37:58.351Z,14.30
2022-09-22T01:40:42.837Z,14.00
2022-09-22T01:43:34.183Z,14.10
2022-09-22T01:46:03.173Z,14.00
2022-09-22T01:48:31.608Z,14.00
2022-09-22T01:51:04.447Z,14.00
2022-09-22T01:53:35.804Z,14.00
2022-09-22T01:56:05.929Z,13.90
2022-09-22T01:58:34.490Z,14.00
2022-09-22T02:01:13.633Z,14.10
2022-09-22T02:03:41.667Z,14.00
2022-09-22T02:06:11.953Z,14.00
2022-09-22T02:08:39.099Z,14.00
2022-09-22T02:11:14.416Z,14.00
2022-09-22T02:13:42.684Z,14.00
2022-09-22T02:16:11.787Z,14.00
2022-09-22T02:18:45.143Z,13.90
2022-09-22T02:21:16.905Z,13.90
2022-09-22T02:27:36.852Z,14.50
2022-09-22T02:30:13.336Z,13.80
2022-09-22T02:32:43.295Z,13.90
2022-09-22T02:35:20.515Z,13.90
2022-09-22T02:37:53.817Z,13.90
2022-09-22T02:40:30.125Z,13.80
2022-09-22T02:43:16.387Z,13.80
2022-09-22T02:45:56.932Z,13.90
2022-09-22T02:48:44.325Z,13.80
2022-09-22T02:51:13.322Z,13.80
2022-09-22T02:53:40.644Z,13.80
2022-09-22T02:56:08.088Z,13.80
2022-09-22T02:58:35.321Z,13.80
2022-09-22T03:01:02.582Z,13.80
2022-09-22T03:03:30.343Z,13.80
2022-09-22T03:05:59.487Z,13.70
2022-09-22T03:08:26.559Z,13.70
2022-09-22T03:10:53.788Z,13.70
2022-09-22T03:13:20.858Z,13.70
2022-09-22T03:15:50.248Z,13.60
2022-09-22T03:18:17.504Z,12.90
2022-09-22T03:20:45.087Z,13.60
2022-09-22T03:23:15.010Z,13.60
2022-09-22T03:25:42.460Z,13.60
2022-09-22T03:28:09.573Z,13.60
2022-09-22T03:30:39.657Z,13.50
2022-09-22T03:33:07.080Z,13.60
2022-09-22T03:35:34.234Z,13.60
2022-09-22T03:38:01.653Z,13.60
2022-09-22T03:40:28.747Z,13.60
2022-09-22T03:42:55.875Z,13.60
2022-09-22T03:45:23.093Z,13.60
2022-09-22T03:47:50.297Z,13.50
2022-09-22T03:50:17.451Z,13.50
2022-09-22T03:52:45.257Z,13.50
2022-09-22T03:55:12.542Z,13.50
2022-09-22T03:57:40.280Z,13.50
2022-09-22T04:00:07.841Z,13.50
2022-09-22T04:02:35.251Z,13.40
2022-09-22T04:05:02.437Z,13.40
2022-09-22T04:07:29.506Z,13.40
2022-09-22T04:09:57.571Z,13.40
2022-09-22T04:12:24.677Z,13.30
2022-09-22T04:14:51.760Z,13.40
2022-09-22T04:17:20.512Z,13.40
2022-09-22T04:19:56.525Z,13.30
2022-09-22T04:22:23.684Z,13.30
2022-09-22T04:24:50.771Z,13.30
2022-09-22T04:27:20.302Z,13.40
2022-09-22T04:29:49.349Z,13.30
2022-09-22T04:32:17.339Z,13.40
2022-09-22T04:34:44.445Z,13.30
2022-09-22T04:37:11.979Z,13.30
2022-09-22T04:39:39.313Z,13.30
2022-09-22T04:42:09.043Z,14.70
2022-09-22T04:44:36.404Z,13.30
2022-09-22T04:47:04.283Z,13.30
2022-09-22T04:49:31.749Z,13.20
2022-09-22T04:51:59.250Z,13.80
2022-09-22T04:54:26.347Z,13.10
2022-09-22T04:56:53.591Z,13.20
2022-09-22T04:59:20.641Z,13.20
2022-09-22T05:01:47.793Z,13.10
2022-09-22T05:04:14.966Z,12.90
2022-09-22T05:06:42.228Z,13.10
2022-09-22T05:09:09.368Z,13.10
2022-09-22T05:11:36.593Z,13.10
2022-09-22T05:14:03.677Z,13.10
2022-09-22T05:16:31.423Z,13.10
2022-09-22T05:18:58.533Z,13.10
2022-09-22T05:21:25.728Z,13.00
2022-09-22T05:23:53.847Z,13.00
2022-09-22T05:26:20.900Z,12.90
2022-09-22T05:28:48.166Z,13.10
2022-09-22T05:31:15.296Z,13.00
2022-09-22T05:33:42.438Z,13.00
2022-09-22T05:36:09.544Z,13.00
2022-09-22T05:38:37.563Z,13.00
2022-09-22T05:41:04.724Z,12.90
2022-09-22T05:43:31.843Z,12.90
2022-09-22T05:45:59.029Z,12.90
2022-09-22T05:48:30.403Z,12.50
2022-09-22T05:50:58.684Z,12.90
2022-09-22T05:53:25.795Z,12.90
2022-09-22T05:55:54.042Z,12.90
2022-09-22T05:58:21.137Z,12.90
2022-09-22T06:00:48.291Z,12.90
2022-09-22T06:03:15.474Z,12.80
2022-09-22T06:05:44.057Z,12.90
2022-09-22T06:08:12.904Z,12.80
2022-09-22T06:10:47.755Z,12.80
2022-09-22T06:13:15.180Z,12.80
2022-09-22T06:15:44.437Z,12.80
2022-09-22T06:18:14.876Z,12.90
2022-09-22T06:20:44.648Z,12.80
2022-09-22T06:23:14.264Z,12.90
2022-09-22T06:25:42.571Z,12.90
2022-09-22T06:28:10.957Z,12.80
2022-09-22T06:30:40.368Z,13.70
2022-09-22T06:33:08.393Z,12.90
2022-09-22T06:35:38.626Z,12.90
2022-09-22T06:38:07.434Z,12.90
2022-09-22T06:40:38.191Z,12.90
2022-09-22T06:43:11.931Z,12.80
2022-09-22T06:45:40.110Z,12.90
2022-09-22T06:48:10.002Z,13.00
2022-09-22T06:50:38.327Z,13.00
2022-09-22T06:53:09.487Z,13.00
2022-09-22T06:55:37.418Z,13.00
2022-09-22T06:58:04.550Z,13.00
2022-09-22T07:00:33.380Z,13.10
2022-09-22T07:03:09.146Z,13.10
2022-09-22T07:05:39.608Z,13.10
2022-09-22T07:08:08.966Z,13.10
2022-09-22T07:10:38.911Z,13.20
2022-09-22T07:13:06.482Z,13.20
2022-09-22T07:15:34.589Z,13.30
2022-09-22T07:18:01.863Z,13.30
2022-09-22T07:20:30.478Z,13.30
2022-09-22T07:23:00.827Z,13.40
2022-09-22T07:25:28.769Z,13.40
2022-09-22T07:27:58.242Z,13.40
2022-09-22T07:30:26.390Z,13.50
2022-09-22T07:32:53.584Z,13.50
2022-09-22T07:35:20.660Z,13.60
2022-09-22T07:37:47.897Z,13.60
2022-09-22T07:40:14.958Z,13.60
2022-09-22T07:42:42.307Z,13.70
2022-09-22T07:45:12.997Z,13.70
2022-09-22T07:47:58.861Z,13.70
2022-09-22T07:50:25.941Z,13.70
2022-09-22T07:52:53.579Z,13.80
2022-09-22T07:55:25.214Z,13.80
2022-09-22T07:57:59.431Z,13.80
2022-09-22T08:00:33.477Z,13.90
2022-09-22T08:03:01.365Z,13.90
2022-09-22T08:05:29.106Z,14.10
2022-09-22T08:08:00.822Z,14.00
2022-09-22T08:10:27.940Z,14.00
2022-09-22T08:12:57.936Z,13.90
2022-09-22T08:15:27.463Z,14.20
2022-09-22T08:18:03.921Z,14.30
2022-09-22T08:20:33.128Z,14.20
2022-09-22T08:23:05.059Z,14.30
2022-09-22T08:25:32.179Z,14.40
2022-09-22T08:28:01.106Z,14.40
2022-09-22T08:30:30.837Z,14.50
2022-09-22T08:33:00.735Z,15.20
2022-09-22T08:35:28.247Z,14.50
2022-09-22T08:37:56.249Z,14.60
2022-09-22T08:40:23.900Z,14.40
2022-09-22T08:42:54.500Z,14.70
2022-09-22T08:45:26.996Z,14.70
2022-09-22T08:48:16.186Z,15.10
2022-09-22T08:51:10.346Z,14.90
2022-09-22T08:53:43.585Z,16.30
2022-09-22T08:56:33.338Z,15.00
2022-09-22T08:59:01.252Z,15.00
2022-09-22T09:01:35.552Z,14.80
2022-09-22T09:04:21.691Z,15.10
2022-09-22T09:06:58.221Z,15.20
2022-09-22T09:09:39.312Z,15.20
2022-09-22T09:12:24.645Z,15.20
2022-09-22T09:14:51.712Z,15.20
2022-09-22T09:17:23.443Z,15.30
2022-09-22T09:19:54.071Z,15.40
2022-09-22T09:22:25.558Z,15.40
2022-09-22T09:27:57.541Z,15.50
2022-09-22T09:30:25.040Z,15.50
2022-09-22T09:32:52.084Z,15.60
2022-09-22T09:35:24.888Z,15.60
2022-09-22T09:37:53.547Z,15.70
2022-09-22T09:40:22.108Z,15.70
2022-09-22T09:43:03.375Z,15.80
2022-09-22T09:45:34.464Z,15.80
2022-09-22T09:48:01.482Z,15.90
2022-09-22T09:50:32.685Z,14.60
2022-09-22T09:52:59.842Z,16.00
2022-09-22T09:55:27.741Z,16.10
2022-09-22T09:58:36.242Z,16.10
2022-09-22T10:01:04.437Z,15.80
2022-09-22T10:03:35.272Z,15.30
2022-09-22T10:06:06.613Z,16.30
2022-09-22T10:08:42.963Z,16.20
2022-09-22T10:11:12.657Z,16.20
2022-09-22T10:13:40.616Z,16.30
2022-09-22T10:16:08.133Z,16.30
2022-09-22T10:18:40.593Z,16.40
2022-09-22T10:21:17.630Z,16.40
2022-09-22T10:23:45.972Z,16.50
2022-09-22T10:26:14.952Z,16.70
2022-09-22T10:28:42.070Z,16.90
2022-09-22T10:31:24.984Z,16.90
2022-09-22T10:33:58.220Z,17.10
2022-09-22T10:36:27.243Z,17.10
2022-09-22T10:38:58.881Z,17.20
2022-09-22T10:41:34.379Z,17.20
2022-09-22T10:44:15.511Z,17.20
2022-09-22T10:47:00.593Z,18.50
2022-09-22T10:49:31.579Z,17.20
2022-09-22T10:52:04.393Z,17.30
2022-09-22T10:54:50.043Z,18.20
2022-09-22T10:57:38.733Z,17.30
2022-09-22T11:00:12.369Z,17.40
2022-09-22T11:02:50.417Z,17.40
2022-09-22T11:05:43.652Z,17.40
2022-09-22T11:08:34.552Z,17.40
2022-09-22T11:11:39.730Z,17.40
2022-09-22T11:14:23.461Z,17.50
2022-09-22T11:16:56.652Z,17.50
2022-09-22T11:19:26.867Z,17.50
2022-09-22T11:21:54.039Z,17.40
2022-09-22T11:24:27.487Z,17.70
2022-09-22T11:26:57.195Z,17.40
2022-09-22T11:29:45.185Z,17.40
2022-09-22T11:32:31.697Z,17.50
2022-09-22T11:35:08.221Z,17.50
2022-09-22T11:37:45.203Z,17.60
2022-09-22T11:40:17.377Z,17.60
2022-09-22T11:42:44.708Z,17.60
2022-09-22T11:45:18.079Z,17.70
2022-09-22T11:47:57.774Z,17.80
2022-09-22T11:50:47.955Z,17.80
2022-09-22T11:53:22.363Z,17.80
2022-09-22T11:56:08.195Z,17.90
2022-09-22T11:58:38.704Z,17.90
2022-09-22T12:01:12.292Z,17.80
2022-09-22T12:03:45.000Z,17.90
2022-09-22T12:06:14.710Z,17.90
2022-09-22T12:11:26.462Z,17.90
2022-09-22T12:13:54.680Z,17.90
2022-09-22T12:16:34.899Z,17.90
2022-09-22T12:19:07.944Z,17.90
2022-09-22T12:21:37.945Z,18.00
2022-09-22T12:24:08.975Z,18.00
2022-09-22T12:26:37.595Z,18.10
2022-09-22T12:29:13.824Z,18.10
2022-09-22T12:31:42.715Z,18.10
2022-09-22T12:34:19.384Z,18.10
2022-09-22T12:36:47.176Z,18.10
2022-09-22T12:39:18.848Z,18.40
2022-09-22T12:41:50.457Z,18.10
2022-09-22T12:44:21.735Z,18.00
2022-09-22T12:46:49.363Z,17.80
2022-09-22T12:49:23.552Z,18.00
2022-09-22T12:51:51.056Z,18.00
2022-09-22T12:54:24.384Z,18.80
2022-09-22T12:57:23.875Z,18.10
2022-09-22T13:00:09.504Z,18.10
2022-09-22T13:02:43.902Z,18.20
2022-09-22T13:05:11.125Z,18.30
2022-09-22T13:07:39.676Z,18.30
2022-09-22T13:10:25.091Z,18.40
2022-09-22T13:13:01.101Z,18.40
2022-09-22T13:15:51.226Z,18.40
2022-09-22T13:18:30.306Z,18.50
2022-09-22T13:20:58.606Z,18.50
2022-09-22T13:23:26.328Z,18.50
2022-09-22T13:25:53.637Z,18.60
2022-09-22T13:28:22.086Z,18.60
2022-09-22T13:31:02.205Z,18.50
2022-09-22T13:33:33.628Z,17.80
2022-09-22T13:36:09.946Z,18.50
2022-09-22T13:38:38.520Z,18.50
2022-09-22T13:41:10.896Z,17.50
2022-09-22T13:43:38.862Z,18.40
2022-09-22T13:46:09.337Z,18.40
2022-09-22T13:48:37.292Z,18.40
2022-09-22T13:51:06.176Z,18.40
2022-09-22T13:53:33.899Z,18.40
2022-09-22T13:56:01.404Z,18.30
2022-09-22T13:58:39.895Z,18.30
2022-09-22T14:01:20.792Z,18.30
2022-09-22T14:03:48.486Z,18.30
2022-09-22T14:06:17.317Z,18.30
2022-09-22T14:08:45.471Z,18.30
2022-09-22T14:11:17.997Z,18.30
2022-09-22T14:13:54.526Z,18.30
2022-09-22T14:16:27.771Z,18.40
2022-09-22T14:19:07.490Z,18.40
2022-09-22T14:22:00.852Z,18.50
2022-09-22T14:24:28.195Z,18.60
2022-09-22T14:27:05.448Z,18.50
2022-09-22T14:29:34.041Z,18.50
2022-09-22T14:32:11.812Z,18.50
2022-09-22T14:34:40.279Z,18.50
2022-09-22T14:37:16.987Z,18.20
2022-09-22T14:39:44.778Z,18.60
2022-09-22T14:42:20.018Z,18.60
2022-09-22T14:44:49.760Z,18.50
2022-09-22T14:47:27.341Z,18.80
2022-09-22T14:50:12.924Z,18.50
2022-09-22T14:52:48.760Z,18.50
2022-09-22T14:55:25.021Z,18.40
2022-09-22T14:57:52.209Z,18.50
2022-09-22T15:00:37.913Z,18.40
2022-09-22T15:03:15.947Z,18.50
2022-09-22T15:05:44.369Z,18.40
2022-09-22T15:08:16.113Z,18.50
2022-09-22T15:10:51.233Z,18.50
2022-09-22T15:13:26.554Z,18.40
2022-09-22T15:15:53.797Z,18.40
2022-09-22T15:18:21.563Z,18.30
2022-09-22T15:20:58.352Z,18.30
2022-09-22T15:23:31.737Z,18.40
2022-09-22T15:26:05.405Z,18.30
2022-09-22T15:28:37.217Z,18.10
2022-09-22T15:31:05.954Z,18.50
2022-09-22T15:33:33.230Z,18.10
2022-09-22T15:36:10.094Z,18.50
2022-09-22T15:38:38.004Z,18.50
2022-09-22T15:41:05.538Z,18.50
2022-09-22T15:43:33.767Z,18.40
2022-09-22T15:46:01.875Z,18.50
2022-09-22T15:48:30.539Z,18.40
2022-09-22T15:51:00.192Z,18.40
2022-09-22T15:53:27.407Z,18.40
2022-09-22T15:55:54.593Z,18.40
2022-09-22T15:58:25.170Z,18.30
2022-09-22T16:00:53.332Z,18.30
2022-09-22T16:03:25.856Z,18.20
2022-09-22T16:05:57.785Z,18.10
2022-09-22T16:08:35.202Z,18.10
2022-09-22T16:11:05.645Z,18.10
2022-09-22T16:13:33.814Z,18.10
2022-09-22T16:16:03.183Z,18.10
2022-09-22T16:18:33.265Z,18.10
2022-09-22T16:21:04.385Z,18.10
2022-09-22T16:23:31.878Z,18.10
2022-09-22T16:25:59.067Z,18.10
2022-09-22T16:28:26.168Z,18.00
2022-09-22T16:30:53.268Z,18.00
2022-09-22T16:33:21.739Z,18.00
2022-09-22T16:35:49.291Z,18.00
2022-09-22T16:38:16.526Z,17.90
2022-09-22T16:40:44.470Z,17.90
2022-09-22T16:43:13.804Z,17.80
2022-09-22T16:45:59.215Z,17.80
2022-09-22T16:48:26.493Z,17.80
2022-09-22T16:50:53.955Z,17.80
2022-09-22T16:53:24.696Z,17.80
2022-09-22T16:55:51.775Z,17.60
2022-09-22T16:58:19.037Z,17.70
2022-09-22T17:00:46.376Z,17.60
2022-09-22T17:03:13.654Z,17.60
2022-09-22T17:05:41.163Z,17.60
2022-09-22T17:08:08.638Z,17.60
2022-09-22T17:10:36.061Z,17.90
2022-09-22T17:13:04.864Z,17.50
2022-09-22T17:15:38.061Z,17.50
2022-09-22T17:18:05.213Z,17.50
2022-09-22T17:20:32.299Z,17.40
2022-09-22T17:22:59.383Z,17.40
2022-09-22T17:25:29.144Z,17.40
2022-09-22T17:27:56.948Z,17.70
2022-09-22T17:30:24.268Z,17.30
2022-09-22T17:32:51.337Z,17.30
2022-09-22T17:35:18.424Z,17.30
2022-09-22T17:37:47.938Z,17.20
2022-09-22T17:40:15.349Z,17.20
2022-09-22T17:42:42.603Z,16.80
2022-09-22T17:45:10.126Z,17.10
2022-09-22T17:47:55.745Z,17.00
2022-09-22T17:50:41.240Z,17.50
2022-09-22T17:53:27.845Z,17.00
2022-09-22T17:55:55.193Z,17.00
2022-09-22T17:58:23.266Z,16.90
2022-09-22T18:00:51.530Z,16.90
2022-09-22T18:03:18.690Z,16.90
2022-09-22T18:05:51.349Z,17.50
2022-09-22T18:08:19.414Z,16.80
2022-09-22T18:10:46.580Z,16.70
2022-09-22T18:13:13.954Z,16.60
2022-09-22T18:15:41.684Z,16.70
2022-09-22T18:18:08.818Z,16.70
2022-09-22T18:20:35.917Z,16.60
2022-09-22T18:23:03.189Z,16.60
2022-09-22T18:25:31.311Z,16.60
2022-09-22T18:27:59.300Z,16.50
2022-09-22T18:30:26.567Z,16.60
2022-09-22T18:32:55.046Z,16.50
2022-09-22T18:35:24.382Z,16.60
2022-09-22T18:37:51.791Z,16.50
2022-09-22T18:40:19.105Z,16.50
2022-09-22T18:42:46.235Z,16.50
2022-09-22T18:45:14.233Z,16.50
2022-09-22T18:47:43.683Z,16.40
2022-09-22T18:50:11.549Z,16.40
2022-09-22T18:52:42.813Z,16.40
2022-09-22T18:55:10.890Z,16.30
2022-09-22T18:57:39.024Z,16.30
2022-09-22T19:00:06.423Z,16.30
2022-09-22T19:02:33.694Z,16.30
2022-09-22T19:05:01.349Z,16.30
2022-09-22T19:07:44.092Z,16.20
2022-09-22T19:10:12.635Z,16.20
2022-09-22T19:12:40.010Z,16.20
2022-09-22T19:15:13.935Z,16.10
2022-09-22T19:17:43.932Z,16.20
2022-09-22T19:20:13.555Z,16.10
2022-09-22T19:22:41.122Z,16.10
2022-09-22T19:25:08.533Z,16.00
2022-09-22T19:27:35.608Z,16.00
2022-09-22T19:30:02.803Z,16.10
2022-09-22T19:32:29.970Z,16.00
2022-09-22T19:34:57.148Z,16.00
2022-09-22T19:37:25.388Z,16.00
2022-09-22T19:39:52.557Z,15.90
2022-09-22T19:42:21.106Z,15.90
2022-09-22T19:44:49.223Z,15.90
2022-09-22T19:47:16.453Z,15.90
2022-09-22T19:49:43.702Z,15.90
2022-09-22T19:52:12.323Z,15.90
2022-09-22T19:54:39.498Z,15.80
2022-09-22T19:57:06.641Z,15.80
2022-09-22T19:59:33.754Z,15.80
2022-09-22T20:02:03.755Z,16.00
2022-09-22T20:04:34.421Z,15.80
2022-09-22T20:07:01.738Z,15.80
2022-09-22T20:09:28.982Z,15.70
2022-09-22T20:11:56.099Z,15.70
2022-09-22T20:14:25.400Z,15.80
2022-09-22T20:16:56.920Z,15.70
2022-09-22T20:19:24.730Z,15.70
2022-09-22T20:21:54.573Z,15.70
2022-09-22T20:24:22.698Z,15.70
2022-09-22T20:26:50.154Z,15.70
2022-09-22T20:29:17.435Z,15.70
2022-09-22T20:31:44.865Z,15.70
2022-09-22T20:34:14.268Z,15.60
2022-09-22T20:36:43.189Z,15.60
2022-09-22T20:39:13.431Z,15.60
2022-09-22T20:41:41.347Z,15.60
2022-09-22T20:44:15.937Z,15.60
2022-09-22T20:46:44.679Z,15.60
2022-09-22T20:49:13.275Z,15.60
2022-09-22T20:51:43.390Z,15.60
2022-09-22T20:54:12.188Z,15.60
2022-09-22T20:56:42.638Z,15.60
2022-09-22T20:59:12.248Z,15.60
2022-09-22T21:01:39.445Z,15.60
2022-09-22T21:04:07.057Z,15.60
2022-09-22T21:06:34.269Z,15.60
2022-09-22T21:09:20.223Z,15.60
2022-09-22T21:11:48.021Z,15.60
2022-09-22T21:14:15.458Z,15.60
2022-09-22T21:16:43.552Z,15.60
2022-09-22T21:19:11.192Z,15.60
2022-09-22T21:21:38.300Z,15.60
2022-09-22T21:24:05.980Z,15.60
2022-09-22T21:26:33.237Z,15.60
2022-09-22T21:29:00.647Z,15.60
2022-09-22T21:31:28.154Z,15.60
2022-09-22T21:33:55.958Z,17.10
2022-09-22T21:36:23.599Z,15.00
2022-09-22T21:38:55.077Z,15.60
2022-09-22T21:41:23.812Z,15.60
2022-09-22T21:43:53.439Z,15.60
2022-09-22T21:46:24.964Z,15.60
2022-09-22T21:49:01.693Z,15.60
2022-09-22T21:51:36.328Z,15.60
2022-09-22T21:54:04.583Z,15.60
2022-09-22T21:56:33.194Z,15.60
2022-09-22T21:59:02.672Z,15.60
2022-09-22T22:01:31.622Z,15.70
2022-09-22T22:03:59.365Z,15.70
2022-09-22T22:06:26.534Z,15.70
2022-09-22T22:09:06.979Z,15.60
2022-09-22T22:11:35.265Z,15.70
2022-09-22T22:14:04.656Z,15.70
2022-09-22T22:16:37.926Z,15.60
2022-09-22T22:19:06.387Z,15.70
2022-09-22T22:21:34.420Z,15.60
2022-09-22T22:24:18.596Z,15.60
2022-09-22T22:26:51.540Z,16.20
2022-09-22T22:29:19.583Z,15.60
2022-09-22T22:31:49.149Z,14.10
2022-09-22T22:34:17.470Z,15.60
2022-09-22T22:36:44.776Z,15.60
2022-09-22T22:39:12.558Z,15.60
2022-09-22T22:41:40.962Z,15.60
2022-09-22T22:44:08.653Z,15.60
2022-09-22T22:46:36.069Z,15.00
2022-09-22T22:49:03.277Z,15.60
2022-09-22T22:51:30.441Z,15.60
2022-09-22T22:53:57.509Z,15.60
2022-09-22T22:56:26.137Z,15.60
2022-09-22T22:58:53.777Z,15.60
2022-09-22T23:01:28.211Z,15.60
2022-09-22T23:03:55.289Z,15.50
2022-09-22T23:06:24.051Z,15.60
2022-09-22T23:08:51.498Z,15.60
2022-09-22T23:11:27.035Z,15.60
2022-09-22T23:13:56.389Z,15.60
2022-09-22T23:16:24.338Z,15.60
2022-09-22T23:18:52.299Z,15.60
2022-09-22T23:21:20.941Z,15.60
2022-09-22T23:23:48.846Z,15.60
2022-09-22T23:26:16.851Z,15.90
2022-09-22T23:28:44.149Z,15.50
2022-09-22T23:31:12.327Z,15.50
2022-09-22T23:33:40.703Z,15.60
2022-09-22T23:36:08.803Z,15.50
2022-09-22T23:38:36.303Z,15.50
2022-09-22T23:41:03.961Z,15.50
2022-09-22T23:43:31.639Z,15.50
2022-09-22T23:45:59.124Z,15.50
2022-09-22T23:48:27.244Z,15.50
2022-09-22T23:50:54.715Z,15.60
2022-09-22T23:53:23.091Z,15.50
2022-09-22T23:55:50.464Z,15.50
2022-09-22T23:58:17.881Z,15.50
